Time;durP1;ratioP1;P1;durP2;ratioP2;P2;SDS_P1;SDS_P2;PMS_P1;PMS_P2;Temp;Humidity;BMP_temperature;BMP_pressure;BME280_temperature;BME280_humidity;BME280_pressure;Samples;Min_cycle;Max_cycle;Signal;HPM_P1;HPM_P2
2021/08/26 00:06:30;;;;;;;12.88;7.10;;;;;;;14.35;78.53;100347.25;20579248;28;20456;-73
2021/08/26 00:16:32;;;;;;;14.93;7.03;;;;;;;14.24;79.21;100330.94;20577764;28;20061;-73
2021/08/26 00:26:34;;;;;;;11.23;6.80;;;;;;;14.13;79.04;100326.00;20578516;28;20106;-73
2021/08/26 00:36:36;;;;;;;12.90;6.78;;;;;;;13.99;80.30;100325.56;20565815;28;20046;-73
2021/08/26 00:46:39;;;;;;;13.95;7.38;;;;;;;13.92;79.85;100330.16;20577543;28;20051;-73
2021/08/26 00:56:41;;;;;;;14.48;8.00;;;;;;;13.85;79.84;100326.00;20576072;28;20046;-73
2021/08/26 01:07:00;;;;;;;12.07;6.60;;;;;;;13.76;80.42;100314.00;20576090;28;20471;-73
2021/08/26 01:17:03;;;;;;;12.27;7.97;;;;;;;13.62;81.45;100297.75;20577629;28;20054;-73
2021/08/26 01:27:05;;;;;;;15.40;7.68;;;;;;;13.57;81.83;100297.88;20576620;28;20055;-72
2021/08/26 01:37:07;;;;;;;13.65;8.00;;;;;;;13.48;82.33;100292.03;20574881;28;20062;-73
2021/08/26 01:47:16;;;;;;;13.02;7.32;;;;;;;13.43;82.65;100292.19;20574379;28;20127;-73
2021/08/26 01:57:19;;;;;;;18.98;8.38;;;;;;;13.33;83.29;100288.94;20574833;28;20393;-73
2021/08/26 02:07:20;;;;;;;13.82;8.23;;;;;;;13.19;84.20;100290.22;20565272;28;20117;-73
2021/08/26 02:17:22;;;;;;;14.65;8.95;;;;;;;13.27;83.85;100291.75;20588020;28;20551;-72
2021/08/26 02:27:24;;;;;;;14.25;8.25;;;;;;;13.35;82.98;100265.22;20587212;28;20109;-72
2021/08/26 02:37:26;;;;;;;13.52;8.40;;;;;;;13.39;82.31;100244.97;20586145;28;20497;-72
2021/08/26 02:47:28;;;;;;;14.50;7.30;;;;;;;13.46;81.87;100250.00;20585789;28;20046;-72
2021/08/26 02:57:30;;;;;;;12.90;8.27;;;;;;;13.54;81.82;100233.97;20585302;28;20390;-72
2021/08/26 03:07:31;;;;;;;12.45;7.97;;;;;;;13.57;81.56;100224.22;20566473;28;20058;-72
2021/08/26 03:17:33;;;;;;;14.70;8.52;;;;;;;13.51;81.99;100219.16;20582733;28;20481;-72
2021/08/26 03:27:35;;;;;;;11.82;8.00;;;;;;;13.42;82.00;100227.34;20582973;28;20475;-73
2021/08/26 03:37:37;;;;;;;14.48;7.45;;;;;;;13.32;82.79;100228.53;20580361;28;20308;-73
2021/08/26 03:47:39;;;;;;;11.20;7.70;;;;;;;13.27;82.78;100214.63;20581553;28;20047;-73
2021/08/26 03:57:41;;;;;;;12.35;7.95;;;;;;;13.12;83.62;100215.91;20579971;28;20081;-74
2021/08/26 04:07:43;;;;;;;11.45;7.68;;;;;;;13.22;82.87;100221.78;20579248;28;20055;-72
2021/08/26 04:17:44;;;;;;;12.05;7.18;;;;;;;13.24;82.75;100201.59;20579354;28;20050;-73
2021/08/26 04:27:46;;;;;;;12.45;7.97;;;;;;;13.26;82.54;100197.13;20578509;28;20054;-72
2021/08/26 04:37:48;;;;;;;11.98;8.20;;;;;;;13.13;83.59;100209.75;20577944;28;20174;-73
2021/08/26 04:47:50;;;;;;;15.40;7.93;;;;;;;13.17;82.99;100218.41;20577639;28;20060;-73
2021/08/26 04:57:52;;;;;;;13.75;7.95;;;;;;;13.23;82.90;100220.91;20577437;28;20417;-72
2021/08/26 05:07:54;;;;;;;14.50;8.30;;;;;;;13.32;82.68;100218.88;20575928;28;20883;-72
2021/08/26 05:17:56;;;;;;;14.50;7.43;;;;;;;13.53;81.94;100209.44;20575943;28;20489;-72
2021/08/26 05:27:58;;;;;;;13.90;8.35;;;;;;;13.75;81.65;100212.28;20575893;28;20082;-73
2021/08/26 05:38:00;;;;;;;13.15;8.50;;;;;;;13.64;81.90;100203.84;20575350;28;20101;-72
2021/08/26 05:48:02;;;;;;;15.05;8.20;;;;;;;13.62;81.70;100215.34;20574261;28;20066;-74
2021/08/26 05:58:04;;;;;;;15.40;7.40;;;;;;;13.83;81.11;100204.13;20573748;28;20047;-73
2021/08/26 06:08:06;;;;;;;10.15;6.80;;;;;;;13.88;81.07;100211.88;20589402;28;20098;-73
2021/08/26 06:18:07;;;;;;;14.05;8.25;;;;;;;14.05;79.95;100218.31;20588690;28;20051;-73
2021/08/26 06:28:09;;;;;;;14.90;7.50;;;;;;;14.16;80.16;100225.00;20588619;28;20097;-74
2021/08/26 06:38:11;;;;;;;12.98;8.02;;;;;;;14.20;79.88;100216.94;20586965;28;20562;-75
2021/08/26 06:48:13;;;;;;;13.55;7.45;;;;;;;14.27;80.41;100228.13;20585822;28;20476;-74
2021/08/26 06:58:15;;;;;;;13.38;7.65;;;;;;;14.48;80.64;100239.75;20585773;28;20050;-73
2021/08/26 07:08:17;;;;;;;12.80;8.63;;;;;;;14.54;83.27;100240.41;20583202;28;20125;-72
2021/08/26 07:18:19;;;;;;;13.80;8.55;;;;;;;14.66;84.54;100254.03;20585545;28;20057;-72
2021/08/26 07:28:20;;;;;;;18.15;10.65;;;;;;;14.44;85.87;100243.38;20591265;23;20405;-72
2021/08/26 07:38:22;;;;;;;16.58;11.45;;;;;;;14.31;87.57;100245.53;20638670;28;20059;-71
2021/08/26 07:48:24;;;;;;;16.65;11.90;;;;;;;14.35;87.96;100245.41;20577774;28;20059;-72
2021/08/26 07:58:52;;;;;;;18.40;11.80;;;;;;;14.56;87.44;100242.97;20581475;28;20113;-72
2021/08/26 08:09:00;;;;;;;16.13;10.98;;;;;;;14.54;87.62;100248.28;20579592;28;20101;-72
2021/08/26 08:19:03;;;;;;;18.23;12.02;;;;;;;14.79;88.09;100239.53;20582639;28;20501;-71
2021/08/26 08:29:05;;;;;;;15.82;10.70;;;;;;;14.71;87.28;100239.81;20579529;28;20951;-72
2021/08/26 08:39:07;;;;;;;16.17;11.35;;;;;;;14.62;88.37;100259.44;20578261;28;20050;-72
2021/08/26 08:49:11;;;;;;;16.63;11.23;;;;;;;14.58;88.79;100271.00;20578252;28;20042;-72
2021/08/26 08:59:13;;;;;;;17.83;11.65;;;;;;;14.60;88.19;100282.34;20578170;28;20101;-71
2021/08/26 09:09:15;;;;;;;17.52;10.57;;;;;;;14.50;89.83;100270.38;20611408;28;20597;-70
2021/08/26 09:19:19;;;;;;;16.83;11.10;;;;;;;14.71;87.84;100270.56;20593385;28;20568;-71
2021/08/26 09:29:21;;;;;;;14.97;10.47;;;;;;;14.97;88.12;100278.41;20592708;28;20102;-72
2021/08/26 09:39:27;;;;;;;13.52;8.90;;;;;;;15.39;85.14;100272.50;20592441;28;20044;-72
2021/08/26 09:49:30;;;;;;;16.52;9.23;;;;;;;15.82;85.07;100255.03;20592067;28;20528;-72
2021/08/26 09:59:56;;;;;;;12.88;9.13;;;;;;;16.10;84.45;100250.38;20590743;28;20047;-72
2021/08/26 10:09:58;;;;;;;11.77;8.07;;;;;;;16.79;83.62;100250.13;20591186;28;20394;-72
2021/08/26 10:19:59;;;;;;;10.05;7.07;;;;;;;16.81;82.78;100252.69;20669757;28;20113;-72
2021/08/26 10:30:02;;;;;;;9.85;6.88;;;;;;;17.36;80.99;100247.56;20669025;28;20047;-72
2021/08/26 10:40:30;;;;;;;10.30;6.32;;;;;;;17.30;80.14;100239.94;20668304;28;20104;-73
2021/08/26 10:50:38;;;;;;;11.20;6.20;;;;;;;17.46;80.99;100225.03;20650670;28;20559;-72
2021/08/26 11:00:43;;;;;;;9.68;5.40;;;;;;;17.33;79.74;100218.59;20646821;28;20057;-74
2021/08/26 11:10:45;;;;;;;7.72;4.68;;;;;;;17.95;75.50;100217.41;20657778;28;20090;-73
2021/08/26 11:20:47;;;;;;;8.40;4.25;;;;;;;17.97;73.02;100207.63;20567350;28;20564;-73
2021/08/26 11:30:48;;;;;;;8.43;4.18;;;;;;;18.44;72.83;100199.06;20583399;28;20050;-74
2021/08/26 11:41:02;;;;;;;6.10;3.88;;;;;;;19.27;69.88;100178.78;20582411;28;20057;-75
2021/08/26 11:51:04;;;;;;;7.22;3.92;;;;;;;19.44;66.79;100176.88;20580380;28;20050;-74
2021/08/26 12:01:07;;;;;;;6.28;3.00;;;;;;;19.47;68.50;100186.47;20580229;28;20050;-72
2021/08/26 12:11:09;;;;;;;5.47;3.30;;;;;;;18.85;67.94;100201.38;20579652;28;20134;-75
2021/08/26 12:21:12;;;;;;;6.13;3.60;;;;;;;18.69;70.26;100199.53;20579503;28;20058;-74
2021/08/26 12:31:19;;;;;;;7.68;3.78;;;;;;;19.03;70.46;100186.28;20578654;28;20054;-74
2021/08/26 12:41:24;;;;;;;8.38;3.67;;;;;;;18.75;69.12;100170.97;20578671;28;20051;-74
2021/08/26 12:51:26;;;;;;;7.28;3.75;;;;;;;19.20;66.43;100162.31;20577920;28;20050;-74
2021/08/26 13:01:29;;;;;;;6.57;3.20;;;;;;;19.34;66.40;100153.59;20576748;28;20047;-74
2021/08/26 13:11:32;;;;;;;5.25;3.10;;;;;;;19.56;67.71;100153.25;20588390;28;20101;-74
2021/08/26 13:21:34;;;;;;;5.78;3.50;;;;;;;20.21;66.69;100144.09;20651412;28;20043;-74
2021/08/26 13:31:35;;;;;;;5.57;2.90;;;;;;;19.84;65.28;100141.94;20655921;28;20058;-73
2021/08/26 13:41:37;;;;;;;7.05;3.20;;;;;;;19.33;67.13;100157.19;20656420;28;20078;-73
2021/08/26 13:51:40;;;;;;;5.53;2.08;;;;;;;19.39;53.60;100124.97;20654682;28;20054;-73
2021/08/26 14:01:43;;;;;;;3.63;1.92;;;;;;;19.49;49.61;100119.06;20659702;28;20050;-73
2021/08/26 14:11:45;;;;;;;4.80;1.67;;;;;;;19.51;48.03;100113.66;20636101;28;20054;-72
2021/08/26 14:21:47;;;;;;;4.65;1.88;;;;;;;19.38;50.72;100125.94;20589886;28;20051;-72
2021/08/26 14:31:49;;;;;;;4.70;1.33;;;;;;;19.51;48.97;100112.81;20572351;28;20398;-73
2021/08/26 14:41:51;;;;;;;5.70;1.55;;;;;;;19.51;50.44;100105.72;20570169;28;20047;-74
2021/08/26 14:51:52;;;;;;;3.95;1.48;;;;;;;19.60;47.56;100107.88;20570908;28;20058;-73
2021/08/26 15:01:54;;;;;;;3.33;1.60;;;;;;;19.61;48.61;100114.88;20568570;28;20082;-72
2021/08/26 15:11:56;;;;;;;4.70;1.73;;;;;;;19.67;47.40;100106.56;20601798;28;20054;-74
2021/08/26 15:21:58;;;;;;;3.65;1.67;;;;;;;19.65;48.37;100105.81;20663394;28;20170;-74
2021/08/26 15:32:04;;;;;;;8.18;1.77;;;;;;;19.75;46.71;100099.97;20663657;28;20042;-74
2021/08/26 15:42:06;;;;;;;5.07;1.88;;;;;;;19.85;48.83;100111.75;20663255;28;20054;-73
2021/08/26 15:52:15;;;;;;;4.90;2.15;;;;;;;19.74;49.65;100104.41;20662751;28;20046;-75
2021/08/26 16:02:18;;;;;;;4.20;1.80;;;;;;;19.37;51.08;100106.50;20661301;28;20042;-74
2021/08/26 16:12:20;;;;;;;5.30;2.08;;;;;;;19.34;50.85;100100.50;20640277;28;20046;-74
2021/08/26 16:22:22;;;;;;;4.75;1.92;;;;;;;19.03;52.92;100107.53;20578069;28;20058;-72
2021/08/26 16:32:23;;;;;;;4.97;2.20;;;;;;;19.01;51.61;100111.19;20578308;28;20039;-74
2021/08/26 16:42:25;;;;;;;8.85;2.60;;;;;;;18.89;53.69;100118.03;20579707;28;20046;-73
2021/08/26 16:52:26;;;;;;;5.60;2.40;;;;;;;18.76;55.17;100117.00;20577281;28;20047;-72
2021/08/26 17:02:28;;;;;;;5.53;2.38;;;;;;;18.72;56.23;100116.28;20576606;28;20055;-72
2021/08/26 17:12:31;;;;;;;5.65;2.35;;;;;;;18.50;56.77;100108.59;20587660;28;20050;-73
2021/08/26 17:22:33;;;;;;;6.40;2.40;;;;;;;18.43;57.84;100121.31;20577249;28;20059;-73
2021/08/26 17:32:36;;;;;;;8.32;2.72;;;;;;;18.24;58.29;100139.13;20576798;28;20436;-73
2021/08/26 17:42:38;;;;;;;7.20;2.30;;;;;;;18.06;60.12;100130.34;20592368;28;20409;-73
2021/08/26 17:52:39;;;;;;;6.05;2.63;;;;;;;18.01;60.94;100139.44;20591030;28;20058;-73
2021/08/26 18:02:44;;;;;;;5.10;2.08;;;;;;;17.82;61.48;100139.50;20589660;28;20113;-73
2021/08/26 18:12:46;;;;;;;;;;;;;;;17.59;62.15;100146.75;20614201;28;20061;-73
2021/08/26 18:22:48;;;;;;;5.70;2.38;;;;;;;17.51;61.92;100153.34;20668768;28;19926;-72
2021/08/26 18:32:49;;;;;;;6.00;2.42;;;;;;;17.38;62.38;100158.38;20667138;28;20112;-73
2021/08/26 18:42:51;;;;;;;5.55;2.70;;;;;;;17.16;63.40;100159.41;20667078;28;20050;-72
2021/08/26 18:52:53;;;;;;;7.70;3.22;;;;;;;16.88;65.13;100174.81;20665839;28;20057;-72
2021/08/26 19:02:55;;;;;;;7.65;2.78;;;;;;;16.61;66.15;100193.56;20665467;28;20042;-72
2021/08/26 19:12:56;;;;;;;6.32;3.00;;;;;;;16.30;67.70;100209.91;20632343;28;20078;-73
2021/08/26 19:22:58;;;;;;;7.57;3.03;;;;;;;16.11;68.14;100219.53;20651194;28;20050;-72
2021/08/26 19:33:00;;;;;;;9.27;2.88;;;;;;;15.94;67.96;100225.50;20658844;28;20061;-72
2021/08/26 19:43:04;;;;;;;7.15;2.67;;;;;;;15.83;68.09;100233.84;20637744;28;20138;-72
2021/08/26 19:53:06;;;;;;;7.45;2.55;;;;;;;15.72;68.67;100229.94;20653182;28;20054;-72
2021/08/26 20:03:10;;;;;;;9.20;2.50;;;;;;;15.58;69.26;100239.22;20637064;28;20487;-72
2021/08/26 20:13:12;;;;;;;7.07;2.97;;;;;;;15.41;69.90;100244.25;20629539;28;20049;-72
2021/08/26 20:23:20;;;;;;;7.93;2.80;;;;;;;15.23;70.26;100250.22;20577073;28;20047;-73
2021/08/26 20:33:22;;;;;;;6.05;2.45;;;;;;;15.24;70.03;100246.69;20575613;28;20047;-72
2021/08/26 20:43:23;;;;;;;7.82;2.30;;;;;;;15.25;69.00;100251.06;20580436;28;20078;-73
2021/08/26 20:53:25;;;;;;;6.65;2.20;;;;;;;15.12;70.61;100259.41;20577636;28;20105;-73
2021/08/26 21:03:27;;;;;;;6.97;2.40;;;;;;;15.00;70.08;100246.69;20576028;28;20049;-73
2021/08/26 21:13:28;;;;;;;6.18;2.70;;;;;;;14.93;70.87;100262.75;20619084;28;20424;-73
2021/08/26 21:23:31;;;;;;;6.88;2.05;;;;;;;14.86;71.77;100275.31;20673146;28;20097;-72
2021/08/26 21:33:32;;;;;;;4.75;2.10;;;;;;;14.77;71.67;100273.00;20672533;28;20098;-72
2021/08/26 21:43:34;;;;;;;6.85;2.42;;;;;;;14.60;72.66;100278.84;20672565;28;20050;-71
2021/08/26 21:53:36;;;;;;;7.78;2.60;;;;;;;14.58;73.36;100278.03;20671754;28;20105;-71
2021/08/26 22:03:38;;;;;;;7.95;2.40;;;;;;;14.46;74.84;100279.28;20670080;28;20120;-72
2021/08/26 22:13:40;;;;;;;8.02;2.50;;;;;;;14.55;74.53;100283.41;20669524;28;20073;-73
2021/08/26 22:23:47;;;;;;;6.80;2.25;;;;;;;14.48;74.25;100279.28;20667842;28;20046;-73
2021/08/26 22:33:49;;;;;;;9.38;2.30;;;;;;;14.61;73.20;100283.19;20666439;28;20104;-72
2021/08/26 22:43:51;;;;;;;7.75;2.50;;;;;;;14.58;74.24;100278.91;20667334;28;20467;-72
2021/08/26 22:53:52;;;;;;;7.93;2.63;;;;;;;14.54;74.50;100286.97;20666436;28;20408;-73
2021/08/26 23:03:54;;;;;;;6.25;2.60;;;;;;;14.41;75.49;100285.59;20665337;28;20042;-73
2021/08/26 23:13:57;;;;;;;8.30;2.40;;;;;;;14.30;76.13;100293.88;20663402;28;20046;-72
2021/08/26 23:23:59;;;;;;;8.30;2.47;;;;;;;14.40;76.11;100268.94;20645958;28;20109;-73
2021/08/26 23:34:00;;;;;;;7.82;2.65;;;;;;;14.32;76.60;100270.97;20661259;28;20051;-72
2021/08/26 23:44:02;;;;;;;6.50;2.30;;;;;;;14.40;75.57;100268.94;20661719;28;20058;-72
2021/08/26 23:54:04;;;;;;;8.45;2.17;;;;;;;14.49;75.46;100273.09;20660856;28;20046;-72
